EDFM/MHG METAR and TAF weather

Enter ICAO airport designator
Station Type Date Time Source
EDFM METAR 2021/09/16 09:20 UTC NOAA

EDFM 160920Z 36008KT 9999 SCT013 OVC033 17/14 Q1017


Station Type Date Time Source
EDFM Decoded METAR 2021/09/16 09:20 UTC NOAA

Baden Wurttemberg, Neuostheim, Germany (EDFM) 49-28-21N 008-30-56E
Sep 16, 2021 - 05:20 AM EDT / 2021.09.16 0920 UTC
Wind: from the N (360 degrees) at 9 MPH (8 KT):0
Visibility: greater than 7 mile(s):0
Sky conditions: overcast
Temperature: 62 F (17 C)
Dew Point: 57 F (14 C)
Relative Humidity: 82%
Pressure (altimeter): 30.03 in. Hg (1017 hPa)
ob: EDFM 160920Z 36008KT 9999 SCT013 OVC033 17/14 Q1017
cycle: 9

Station Type Date Time Source
EDFM TAF 2012/03/06 06:30 UTC NOAA

TAF EDFM 060519Z 0606/0621 15004KT 9999 FEW040

Example: see airport list